sensor_id;sensor_type;location;lat;lon;timestamp;P1;durP1;ratioP1;P2;durP2;ratioP2
39492;SDS011;25176;51.060;3.720;2023-03-12T00:00:37;8.98;;;3.42;;
39492;SDS011;25176;51.060;3.720;2023-03-12T00:03:03;7.45;;;3.80;;
39492;SDS011;25176;51.060;3.720;2023-03-12T00:05:29;7.68;;;3.53;;
39492;SDS011;25176;51.060;3.720;2023-03-12T00:07:54;6.70;;;3.13;;
39492;SDS011;25176;51.060;3.720;2023-03-12T00:10:23;7.90;;;3.05;;
39492;SDS011;25176;51.060;3.720;2023-03-12T00:12:52;7.82;;;3.33;;
39492;SDS011;25176;51.060;3.720;2023-03-12T00:15:18;8.57;;;3.28;;
39492;SDS011;25176;51.060;3.720;2023-03-12T00:17:43;10.40;;;3.88;;
39492;SDS011;25176;51.060;3.720;2023-03-12T00:20:09;8.43;;;3.40;;
39492;SDS011;25176;51.060;3.720;2023-03-12T00:22:36;8.32;;;2.97;;
39492;SDS011;25176;51.060;3.720;2023-03-12T00:25:02;7.45;;;3.25;;
39492;SDS011;25176;51.060;3.720;2023-03-12T00:27:30;5.22;;;2.97;;
39492;SDS011;25176;51.060;3.720;2023-03-12T00:29:56;9.13;;;3.08;;
39492;SDS011;25176;51.060;3.720;2023-03-12T00:32:22;7.95;;;3.15;;
39492;SDS011;25176;51.060;3.720;2023-03-12T00:34:51;6.00;;;3.08;;
39492;SDS011;25176;51.060;3.720;2023-03-12T00:37:17;6.15;;;3.20;;
39492;SDS011;25176;51.060;3.720;2023-03-12T00:39:43;8.48;;;2.70;;
39492;SDS011;25176;51.060;3.720;2023-03-12T00:42:09;7.00;;;2.60;;
39492;SDS011;25176;51.060;3.720;2023-03-12T00:44:34;5.95;;;2.53;;
39492;SDS011;25176;51.060;3.720;2023-03-12T00:47:00;6.13;;;2.55;;
39492;SDS011;25176;51.060;3.720;2023-03-12T00:49:25;5.47;;;2.53;;
39492;SDS011;25176;51.060;3.720;2023-03-12T00:51:51;5.28;;;2.65;;
39492;SDS011;25176;51.060;3.720;2023-03-12T00:54:18;5.93;;;2.35;;
39492;SDS011;25176;51.060;3.720;2023-03-12T00:56:44;6.10;;;2.45;;
39492;SDS011;25176;51.060;3.720;2023-03-12T00:59:11;4.57;;;2.75;;
39492;SDS011;25176;51.060;3.720;2023-03-12T01:01:37;5.75;;;2.63;;
39492;SDS011;25176;51.060;3.720;2023-03-12T01:04:03;5.22;;;2.50;;
39492;SDS011;25176;51.060;3.720;2023-03-12T01:06:28;5.55;;;2.72;;
39492;SDS011;25176;51.060;3.720;2023-03-12T01:08:54;4.90;;;2.38;;
39492;SDS011;25176;51.060;3.720;2023-03-12T01:11:20;4.68;;;2.63;;
39492;SDS011;25176;51.060;3.720;2023-03-12T01:13:46;5.55;;;2.83;;
39492;SDS011;25176;51.060;3.720;2023-03-12T01:16:13;4.53;;;2.45;;
39492;SDS011;25176;51.060;3.720;2023-03-12T01:18:38;6.10;;;2.45;;
39492;SDS011;25176;51.060;3.720;2023-03-12T01:21:04;6.65;;;2.40;;
39492;SDS011;25176;51.060;3.720;2023-03-12T01:23:30;3.75;;;2.38;;
39492;SDS011;25176;51.060;3.720;2023-03-12T01:25:55;3.92;;;2.30;;
39492;SDS011;25176;51.060;3.720;2023-03-12T01:28:22;6.53;;;2.45;;
39492;SDS011;25176;51.060;3.720;2023-03-12T01:30:48;6.47;;;2.80;;
39492;SDS011;25176;51.060;3.720;2023-03-12T01:33:14;3.28;;;2.20;;
39492;SDS011;25176;51.060;3.720;2023-03-12T01:35:40;6.82;;;2.30;;
39492;SDS011;25176;51.060;3.720;2023-03-12T01:38:07;7.68;;;2.55;;
39492;SDS011;25176;51.060;3.720;2023-03-12T01:40:36;7.63;;;2.33;;
39492;SDS011;25176;51.060;3.720;2023-03-12T01:48:37;4.07;;;2.33;;
39492;SDS011;25176;51.060;3.720;2023-03-12T01:51:06;3.70;;;2.40;;
39492;SDS011;25176;51.060;3.720;2023-03-12T01:53:34;9.27;;;2.50;;
39492;SDS011;25176;51.060;3.720;2023-03-12T01:56:01;4.05;;;2.40;;
39492;SDS011;25176;51.060;3.720;2023-03-12T01:58:28;5.90;;;2.60;;
39492;SDS011;25176;51.060;3.720;2023-03-12T02:00:57;5.32;;;2.80;;
39492;SDS011;25176;51.060;3.720;2023-03-12T02:03:23;3.95;;;3.38;;
39492;SDS011;25176;51.060;3.720;2023-03-12T02:08:20;3.58;;;2.55;;
39492;SDS011;25176;51.060;3.720;2023-03-12T02:10:48;5.53;;;2.85;;
39492;SDS011;25176;51.060;3.720;2023-03-12T02:13:13;8.55;;;3.15;;
39492;SDS011;25176;51.060;3.720;2023-03-12T02:15:39;6.65;;;3.45;;
39492;SDS011;25176;51.060;3.720;2023-03-12T02:18:06;9.65;;;3.20;;
39492;SDS011;25176;51.060;3.720;2023-03-12T02:23:30;6.28;;;2.58;;
39492;SDS011;25176;51.060;3.720;2023-03-12T02:25:59;8.30;;;2.95;;
39492;SDS011;25176;51.060;3.720;2023-03-12T02:28:26;5.40;;;2.83;;
39492;SDS011;25176;51.060;3.720;2023-03-12T02:30:56;6.50;;;2.70;;
39492;SDS011;25176;51.060;3.720;2023-03-12T02:33:24;5.23;;;3.60;;
39492;SDS011;25176;51.060;3.720;2023-03-12T02:35:50;5.85;;;2.80;;
39492;SDS011;25176;51.060;3.720;2023-03-12T02:41:14;4.80;;;3.05;;
39492;SDS011;25176;51.060;3.720;2023-03-12T02:43:41;4.88;;;2.80;;
39492;SDS011;25176;51.060;3.720;2023-03-12T02:46:10;5.00;;;2.10;;
39492;SDS011;25176;51.060;3.720;2023-03-12T02:48:36;6.90;;;2.85;;
39492;SDS011;25176;51.060;3.720;2023-03-12T02:51:01;6.38;;;3.13;;
39492;SDS011;25176;51.060;3.720;2023-03-12T02:53:28;4.43;;;3.20;;
39492;SDS011;25176;51.060;3.720;2023-03-12T02:55:54;5.35;;;4.10;;
39492;SDS011;25176;51.060;3.720;2023-03-12T02:58:19;8.57;;;3.10;;
39492;SDS011;25176;51.060;3.720;2023-03-12T03:00:45;3.63;;;2.72;;
39492;SDS011;25176;51.060;3.720;2023-03-12T03:03:11;5.05;;;2.58;;
39492;SDS011;25176;51.060;3.720;2023-03-12T03:05:36;7.43;;;2.88;;
39492;SDS011;25176;51.060;3.720;2023-03-12T03:08:02;5.50;;;2.55;;
39492;SDS011;25176;51.060;3.720;2023-03-12T03:10:28;7.15;;;2.85;;
39492;SDS011;25176;51.060;3.720;2023-03-12T03:12:54;5.93;;;2.83;;
39492;SDS011;25176;51.060;3.720;2023-03-12T03:15:20;5.85;;;3.30;;
39492;SDS011;25176;51.060;3.720;2023-03-12T03:17:45;11.80;;;2.95;;
39492;SDS011;25176;51.060;3.720;2023-03-12T03:20:11;7.90;;;3.28;;
39492;SDS011;25176;51.060;3.720;2023-03-12T03:22:37;8.80;;;3.22;;
39492;SDS011;25176;51.060;3.720;2023-03-12T03:25:03;6.75;;;2.50;;
39492;SDS011;25176;51.060;3.720;2023-03-12T03:27:30;6.18;;;2.88;;
39492;SDS011;25176;51.060;3.720;2023-03-12T03:29:56;10.07;;;2.70;;
39492;SDS011;25176;51.060;3.720;2023-03-12T03:32:21;4.78;;;3.15;;
39492;SDS011;25176;51.060;3.720;2023-03-12T03:34:47;6.30;;;2.85;;
39492;SDS011;25176;51.060;3.720;2023-03-12T03:37:12;4.72;;;2.83;;
39492;SDS011;25176;51.060;3.720;2023-03-12T03:39:38;6.28;;;2.95;;
39492;SDS011;25176;51.060;3.720;2023-03-12T03:42:04;10.00;;;3.28;;
39492;SDS011;25176;51.060;3.720;2023-03-12T03:44:29;7.07;;;2.85;;
39492;SDS011;25176;51.060;3.720;2023-03-12T03:46:55;4.13;;;2.80;;
39492;SDS011;25176;51.060;3.720;2023-03-12T03:49:21;6.40;;;3.50;;
39492;SDS011;25176;51.060;3.720;2023-03-12T03:51:47;4.53;;;2.88;;
39492;SDS011;25176;51.060;3.720;2023-03-12T03:54:13;5.43;;;3.13;;
39492;SDS011;25176;51.060;3.720;2023-03-12T03:56:40;6.40;;;2.95;;
39492;SDS011;25176;51.060;3.720;2023-03-12T03:59:05;4.05;;;2.92;;
39492;SDS011;25176;51.060;3.720;2023-03-12T04:01:31;5.97;;;3.83;;
39492;SDS011;25176;51.060;3.720;2023-03-12T04:03:57;8.77;;;3.15;;
39492;SDS011;25176;51.060;3.720;2023-03-12T04:06:23;6.13;;;3.30;;
39492;SDS011;25176;51.060;3.720;2023-03-12T04:08:49;5.72;;;3.25;;
39492;SDS011;25176;51.060;3.720;2023-03-12T04:11:15;5.88;;;3.60;;
39492;SDS011;25176;51.060;3.720;2023-03-12T04:13:43;5.20;;;3.60;;
39492;SDS011;25176;51.060;3.720;2023-03-12T04:16:09;7.00;;;3.67;;
39492;SDS011;25176;51.060;3.720;2023-03-12T04:18:36;6.20;;;4.03;;
39492;SDS011;25176;51.060;3.720;2023-03-12T04:21:02;10.70;;;4.30;;
39492;SDS011;25176;51.060;3.720;2023-03-12T04:23:30;6.38;;;4.32;;
39492;SDS011;25176;51.060;3.720;2023-03-12T04:25:56;6.32;;;4.30;;
39492;SDS011;25176;51.060;3.720;2023-03-12T04:28:22;11.75;;;4.72;;
39492;SDS011;25176;51.060;3.720;2023-03-12T04:30:57;10.35;;;5.38;;
39492;SDS011;25176;51.060;3.720;2023-03-12T04:33:26;6.97;;;4.30;;
39492;SDS011;25176;51.060;3.720;2023-03-12T04:35:56;9.23;;;4.80;;
39492;SDS011;25176;51.060;3.720;2023-03-12T04:38:22;7.75;;;4.90;;
39492;SDS011;25176;51.060;3.720;2023-03-12T04:40:59;9.23;;;5.40;;
39492;SDS011;25176;51.060;3.720;2023-03-12T04:43:29;11.45;;;6.43;;
39492;SDS011;25176;51.060;3.720;2023-03-12T04:45:55;8.60;;;5.93;;
39492;SDS011;25176;51.060;3.720;2023-03-12T04:48:21;7.78;;;5.75;;
39492;SDS011;25176;51.060;3.720;2023-03-12T04:50:47;11.88;;;6.05;;
39492;SDS011;25176;51.060;3.720;2023-03-12T04:53:13;12.93;;;5.45;;
39492;SDS011;25176;51.060;3.720;2023-03-12T04:55:39;10.15;;;6.53;;
39492;SDS011;25176;51.060;3.720;2023-03-12T04:58:05;8.55;;;6.40;;
39492;SDS011;25176;51.060;3.720;2023-03-12T05:00:30;9.00;;;7.05;;
39492;SDS011;25176;51.060;3.720;2023-03-12T05:02:56;8.93;;;6.45;;
39492;SDS011;25176;51.060;3.720;2023-03-12T05:05:21;9.50;;;7.28;;
39492;SDS011;25176;51.060;3.720;2023-03-12T05:07:47;11.00;;;7.35;;
39492;SDS011;25176;51.060;3.720;2023-03-12T05:10:13;11.27;;;7.95;;
39492;SDS011;25176;51.060;3.720;2023-03-12T05:12:38;11.32;;;7.40;;
39492;SDS011;25176;51.060;3.720;2023-03-12T05:15:04;9.30;;;7.13;;
39492;SDS011;25176;51.060;3.720;2023-03-12T05:17:30;9.35;;;8.02;;
39492;SDS011;25176;51.060;3.720;2023-03-12T05:19:56;14.02;;;8.75;;
39492;SDS011;25176;51.060;3.720;2023-03-12T05:22:21;11.15;;;8.75;;
39492;SDS011;25176;51.060;3.720;2023-03-12T05:24:47;12.80;;;9.55;;
39492;SDS011;25176;51.060;3.720;2023-03-12T05:27:13;11.90;;;8.93;;
39492;SDS011;25176;51.060;3.720;2023-03-12T05:29:38;12.15;;;9.60;;
39492;SDS011;25176;51.060;3.720;2023-03-12T05:32:04;11.77;;;9.63;;
39492;SDS011;25176;51.060;3.720;2023-03-12T05:34:31;14.40;;;9.75;;
39492;SDS011;25176;51.060;3.720;2023-03-12T05:36:57;13.25;;;9.95;;
39492;SDS011;25176;51.060;3.720;2023-03-12T05:39:23;14.05;;;9.75;;
39492;SDS011;25176;51.060;3.720;2023-03-12T05:41:49;13.77;;;9.52;;
39492;SDS011;25176;51.060;3.720;2023-03-12T05:44:18;10.98;;;9.80;;
39492;SDS011;25176;51.060;3.720;2023-03-12T05:46:44;16.65;;;10.43;;
39492;SDS011;25176;51.060;3.720;2023-03-12T05:49:09;14.82;;;10.38;;
39492;SDS011;25176;51.060;3.720;2023-03-12T05:51:35;16.92;;;11.15;;
39492;SDS011;25176;51.060;3.720;2023-03-12T05:54:01;14.23;;;10.23;;
39492;SDS011;25176;51.060;3.720;2023-03-12T05:56:27;14.63;;;10.98;;
39492;SDS011;25176;51.060;3.720;2023-03-12T05:58:53;16.90;;;10.98;;
39492;SDS011;25176;51.060;3.720;2023-03-12T06:01:20;16.40;;;11.27;;
39492;SDS011;25176;51.060;3.720;2023-03-12T06:06:16;13.05;;;9.68;;
39492;SDS011;25176;51.060;3.720;2023-03-12T06:08:42;14.80;;;11.27;;
39492;SDS011;25176;51.060;3.720;2023-03-12T06:11:08;17.88;;;11.48;;
39492;SDS011;25176;51.060;3.720;2023-03-12T06:13:35;15.88;;;10.95;;
39492;SDS011;25176;51.060;3.720;2023-03-12T06:16:08;18.92;;;11.48;;
39492;SDS011;25176;51.060;3.720;2023-03-12T06:18:39;15.90;;;11.32;;
39492;SDS011;25176;51.060;3.720;2023-03-12T06:21:11;19.73;;;12.05;;
39492;SDS011;25176;51.060;3.720;2023-03-12T06:23:37;20.98;;;12.02;;
39492;SDS011;25176;51.060;3.720;2023-03-12T06:26:03;18.88;;;11.77;;
39492;SDS011;25176;51.060;3.720;2023-03-12T06:28:29;18.45;;;11.73;;
39492;SDS011;25176;51.060;3.720;2023-03-12T06:30:55;16.55;;;10.98;;
39492;SDS011;25176;51.060;3.720;2023-03-12T06:33:20;21.48;;;12.43;;
39492;SDS011;25176;51.060;3.720;2023-03-12T06:35:46;16.85;;;11.45;;
39492;SDS011;25176;51.060;3.720;2023-03-12T06:38:12;18.60;;;12.55;;
39492;SDS011;25176;51.060;3.720;2023-03-12T06:40:38;22.05;;;11.40;;
39492;SDS011;25176;51.060;3.720;2023-03-12T06:43:03;23.30;;;12.43;;
39492;SDS011;25176;51.060;3.720;2023-03-12T06:45:29;19.33;;;12.65;;
39492;SDS011;25176;51.060;3.720;2023-03-12T06:47:55;18.67;;;12.15;;
39492;SDS011;25176;51.060;3.720;2023-03-12T06:50:21;21.42;;;12.00;;
39492;SDS011;25176;51.060;3.720;2023-03-12T06:52:46;19.83;;;11.55;;
39492;SDS011;25176;51.060;3.720;2023-03-12T06:55:12;22.35;;;13.38;;
39492;SDS011;25176;51.060;3.720;2023-03-12T06:57:38;25.92;;;12.88;;
39492;SDS011;25176;51.060;3.720;2023-03-12T07:00:03;21.20;;;12.25;;
39492;SDS011;25176;51.060;3.720;2023-03-12T07:02:29;26.73;;;13.05;;
39492;SDS011;25176;51.060;3.720;2023-03-12T07:04:55;21.50;;;12.50;;
39492;SDS011;25176;51.060;3.720;2023-03-12T07:07:22;25.70;;;12.77;;
39492;SDS011;25176;51.060;3.720;2023-03-12T07:09:47;27.25;;;12.77;;
39492;SDS011;25176;51.060;3.720;2023-03-12T07:12:13;28.15;;;13.10;;
39492;SDS011;25176;51.060;3.720;2023-03-12T07:14:38;26.60;;;12.10;;
39492;SDS011;25176;51.060;3.720;2023-03-12T07:17:04;30.65;;;12.90;;
39492;SDS011;25176;51.060;3.720;2023-03-12T07:19:29;27.85;;;12.00;;
39492;SDS011;25176;51.060;3.720;2023-03-12T07:21:56;28.52;;;12.32;;
39492;SDS011;25176;51.060;3.720;2023-03-12T07:24:22;37.28;;;12.70;;
39492;SDS011;25176;51.060;3.720;2023-03-12T07:26:47;29.17;;;11.32;;
39492;SDS011;25176;51.060;3.720;2023-03-12T07:29:13;27.60;;;11.82;;
39492;SDS011;25176;51.060;3.720;2023-03-12T07:31:38;25.50;;;12.05;;
39492;SDS011;25176;51.060;3.720;2023-03-12T07:34:04;23.75;;;10.63;;
39492;SDS011;25176;51.060;3.720;2023-03-12T07:36:30;23.73;;;10.27;;
39492;SDS011;25176;51.060;3.720;2023-03-12T07:38:56;24.27;;;9.85;;
39492;SDS011;25176;51.060;3.720;2023-03-12T07:41:22;28.60;;;11.85;;
39492;SDS011;25176;51.060;3.720;2023-03-12T07:43:48;31.67;;;10.45;;
39492;SDS011;25176;51.060;3.720;2023-03-12T07:46:13;27.67;;;9.20;;
39492;SDS011;25176;51.060;3.720;2023-03-12T07:48:39;29.15;;;9.18;;
39492;SDS011;25176;51.060;3.720;2023-03-12T07:51:05;26.20;;;8.10;;
39492;SDS011;25176;51.060;3.720;2023-03-12T07:53:31;34.17;;;8.18;;
39492;SDS011;25176;51.060;3.720;2023-03-12T07:55:56;25.02;;;7.68;;
39492;SDS011;25176;51.060;3.720;2023-03-12T07:58:22;27.20;;;7.88;;
39492;SDS011;25176;51.060;3.720;2023-03-12T08:00:48;27.23;;;7.45;;
39492;SDS011;25176;51.060;3.720;2023-03-12T08:03:14;26.23;;;7.05;;
39492;SDS011;25176;51.060;3.720;2023-03-12T08:05:41;29.60;;;7.50;;
39492;SDS011;25176;51.060;3.720;2023-03-12T08:08:07;21.48;;;7.07;;
39492;SDS011;25176;51.060;3.720;2023-03-12T08:10:33;30.15;;;7.20;;
39492;SDS011;25176;51.060;3.720;2023-03-12T08:12:58;27.65;;;7.75;;
39492;SDS011;25176;51.060;3.720;2023-03-12T08:15:24;26.77;;;7.95;;
39492;SDS011;25176;51.060;3.720;2023-03-12T08:17:49;21.27;;;5.50;;
39492;SDS011;25176;51.060;3.720;2023-03-12T08:20:15;31.88;;;6.35;;
39492;SDS011;25176;51.060;3.720;2023-03-12T08:22:41;20.40;;;5.20;;
39492;SDS011;25176;51.060;3.720;2023-03-12T08:25:07;23.65;;;6.22;;
39492;SDS011;25176;51.060;3.720;2023-03-12T08:27:33;24.20;;;6.18;;
39492;SDS011;25176;51.060;3.720;2023-03-12T08:29:59;22.52;;;5.85;;
39492;SDS011;25176;51.060;3.720;2023-03-12T08:32:24;20.52;;;4.88;;
39492;SDS011;25176;51.060;3.720;2023-03-12T08:34:50;24.88;;;5.72;;
39492;SDS011;25176;51.060;3.720;2023-03-12T08:37:15;24.67;;;5.53;;
39492;SDS011;25176;51.060;3.720;2023-03-12T08:39:41;25.73;;;5.38;;
39492;SDS011;25176;51.060;3.720;2023-03-12T08:42:07;24.10;;;7.38;;
39492;SDS011;25176;51.060;3.720;2023-03-12T08:44:33;27.17;;;6.45;;
39492;SDS011;25176;51.060;3.720;2023-03-12T08:46:59;21.17;;;5.53;;
39492;SDS011;25176;51.060;3.720;2023-03-12T08:49:24;29.75;;;5.55;;
39492;SDS011;25176;51.060;3.720;2023-03-12T08:51:50;27.42;;;6.30;;
39492;SDS011;25176;51.060;3.720;2023-03-12T08:54:16;23.98;;;6.80;;
39492;SDS011;25176;51.060;3.720;2023-03-12T08:56:42;26.50;;;6.53;;
39492;SDS011;25176;51.060;3.720;2023-03-12T08:59:11;32.03;;;6.50;;
39492;SDS011;25176;51.060;3.720;2023-03-12T09:01:37;29.38;;;6.35;;
39492;SDS011;25176;51.060;3.720;2023-03-12T09:04:03;35.05;;;6.32;;
39492;SDS011;25176;51.060;3.720;2023-03-12T09:06:29;27.13;;;6.30;;
39492;SDS011;25176;51.060;3.720;2023-03-12T09:08:55;33.50;;;7.25;;
39492;SDS011;25176;51.060;3.720;2023-03-12T09:11:21;21.52;;;5.45;;
39492;SDS011;25176;51.060;3.720;2023-03-12T09:13:47;31.92;;;7.03;;
39492;SDS011;25176;51.060;3.720;2023-03-12T09:16:12;30.67;;;7.20;;
39492;SDS011;25176;51.060;3.720;2023-03-12T09:18:38;28.27;;;7.00;;
39492;SDS011;25176;51.060;3.720;2023-03-12T09:21:04;29.45;;;6.32;;
39492;SDS011;25176;51.060;3.720;2023-03-12T09:23:30;21.55;;;5.80;;
39492;SDS011;25176;51.060;3.720;2023-03-12T09:25:56;30.90;;;6.60;;
39492;SDS011;25176;51.060;3.720;2023-03-12T09:28:21;27.73;;;6.45;;
39492;SDS011;25176;51.060;3.720;2023-03-12T09:30:47;31.27;;;6.38;;
39492;SDS011;25176;51.060;3.720;2023-03-12T09:33:13;26.77;;;6.55;;
39492;SDS011;25176;51.060;3.720;2023-03-12T09:35:39;27.70;;;6.45;;
39492;SDS011;25176;51.060;3.720;2023-03-12T09:38:05;32.20;;;8.45;;
39492;SDS011;25176;51.060;3.720;2023-03-12T09:40:31;26.52;;;6.72;;
39492;SDS011;25176;51.060;3.720;2023-03-12T09:43:02;32.85;;;7.60;;
39492;SDS011;25176;51.060;3.720;2023-03-12T09:45:35;27.65;;;6.78;;
39492;SDS011;25176;51.060;3.720;2023-03-12T09:50:37;32.58;;;6.60;;
39492;SDS011;25176;51.060;3.720;2023-03-12T09:53:09;25.17;;;5.68;;
39492;SDS011;25176;51.060;3.720;2023-03-12T09:55:36;38.08;;;7.43;;
39492;SDS011;25176;51.060;3.720;2023-03-12T09:58:08;30.30;;;7.20;;
39492;SDS011;25176;51.060;3.720;2023-03-12T10:00:37;26.85;;;7.10;;
39492;SDS011;25176;51.060;3.720;2023-03-12T10:06:10;33.08;;;6.65;;
39492;SDS011;25176;51.060;3.720;2023-03-12T10:19:47;20.55;;;5.18;;
39492;SDS011;25176;51.060;3.720;2023-03-12T10:22:50;21.98;;;5.43;;
39492;SDS011;25176;51.060;3.720;2023-03-12T10:28:40;29.75;;;7.55;;
39492;SDS011;25176;51.060;3.720;2023-03-12T10:31:18;30.10;;;6.25;;
39492;SDS011;25176;51.060;3.720;2023-03-12T10:33:51;28.08;;;6.43;;
39492;SDS011;25176;51.060;3.720;2023-03-12T10:38:53;21.55;;;5.50;;
39492;SDS011;25176;51.060;3.720;2023-03-12T10:41:20;27.70;;;6.22;;
39492;SDS011;25176;51.060;3.720;2023-03-12T10:43:47;22.55;;;5.25;;
39492;SDS011;25176;51.060;3.720;2023-03-12T10:48:39;16.10;;;4.40;;
39492;SDS011;25176;51.060;3.720;2023-03-12T10:51:07;22.98;;;5.13;;
39492;SDS011;25176;51.060;3.720;2023-03-12T10:53:37;28.38;;;6.80;;
39492;SDS011;25176;51.060;3.720;2023-03-12T10:56:10;27.67;;;6.38;;
39492;SDS011;25176;51.060;3.720;2023-03-12T10:58:38;21.05;;;6.40;;
39492;SDS011;25176;51.060;3.720;2023-03-12T11:01:14;26.27;;;5.60;;
39492;SDS011;25176;51.060;3.720;2023-03-12T11:03:43;20.30;;;4.82;;
39492;SDS011;25176;51.060;3.720;2023-03-12T11:06:46;21.17;;;4.70;;
39492;SDS011;25176;51.060;3.720;2023-03-12T11:11:41;21.58;;;4.38;;
39492;SDS011;25176;51.060;3.720;2023-03-12T11:14:19;23.55;;;5.47;;
39492;SDS011;25176;51.060;3.720;2023-03-12T11:16:47;24.42;;;6.03;;
39492;SDS011;25176;51.060;3.720;2023-03-12T11:19:14;24.08;;;5.70;;
39492;SDS011;25176;51.060;3.720;2023-03-12T11:21:56;18.33;;;5.22;;
39492;SDS011;25176;51.060;3.720;2023-03-12T11:24:23;22.20;;;4.90;;
39492;SDS011;25176;51.060;3.720;2023-03-12T11:26:52;27.88;;;6.25;;
39492;SDS011;25176;51.060;3.720;2023-03-12T11:29:30;29.58;;;6.88;;
39492;SDS011;25176;51.060;3.720;2023-03-12T11:32:05;24.05;;;5.30;;
39492;SDS011;25176;51.060;3.720;2023-03-12T11:34:55;28.33;;;5.95;;
39492;SDS011;25176;51.060;3.720;2023-03-12T11:37:25;23.80;;;5.45;;
39492;SDS011;25176;51.060;3.720;2023-03-12T11:45:30;26.17;;;6.68;;
39492;SDS011;25176;51.060;3.720;2023-03-12T11:58:58;19.85;;;4.25;;
39492;SDS011;25176;51.060;3.720;2023-03-12T12:04:32;24.13;;;6.00;;
39492;SDS011;25176;51.060;3.720;2023-03-12T12:09:56;25.65;;;6.00;;
39492;SDS011;25176;51.060;3.720;2023-03-12T12:15:34;19.58;;;4.53;;
39492;SDS011;25176;51.060;3.720;2023-03-12T12:37:23;20.60;;;4.43;;
39492;SDS011;25176;51.060;3.720;2023-03-12T12:43:01;22.65;;;4.20;;
39492;SDS011;25176;51.060;3.720;2023-03-12T12:45:27;19.75;;;4.30;;
39492;SDS011;25176;51.060;3.720;2023-03-12T12:47:59;22.90;;;4.75;;
39492;SDS011;25176;51.060;3.720;2023-03-12T12:50:39;23.58;;;4.45;;
39492;SDS011;25176;51.060;3.720;2023-03-12T12:53:09;17.55;;;3.70;;
39492;SDS011;25176;51.060;3.720;2023-03-12T12:56:05;18.08;;;4.03;;
39492;SDS011;25176;51.060;3.720;2023-03-12T13:01:17;18.63;;;4.35;;
39492;SDS011;25176;51.060;3.720;2023-03-12T13:03:44;21.05;;;4.45;;
39492;SDS011;25176;51.060;3.720;2023-03-12T13:06:11;24.95;;;4.63;;
39492;SDS011;25176;51.060;3.720;2023-03-12T13:14:22;24.33;;;5.05;;
39492;SDS011;25176;51.060;3.720;2023-03-12T13:16:30;19.50;;;4.65;;
39492;SDS011;25176;51.060;3.720;2023-03-12T13:19:17;21.98;;;5.78;;
39492;SDS011;25176;51.060;3.720;2023-03-12T13:27:39;16.77;;;4.88;;
39492;SDS011;25176;51.060;3.720;2023-03-12T13:43:02;14.95;;;4.38;;
39492;SDS011;25176;51.060;3.720;2023-03-12T13:45:30;24.98;;;4.80;;
39492;SDS011;25176;51.060;3.720;2023-03-12T13:47:59;24.25;;;4.57;;
39492;SDS011;25176;51.060;3.720;2023-03-12T13:50:26;22.17;;;5.60;;
39492;SDS011;25176;51.060;3.720;2023-03-12T13:53:04;28.08;;;5.05;;
39492;SDS011;25176;51.060;3.720;2023-03-12T13:55:33;22.65;;;5.43;;
39492;SDS011;25176;51.060;3.720;2023-03-12T13:58:08;22.67;;;5.07;;
39492;SDS011;25176;51.060;3.720;2023-03-12T14:03:27;28.63;;;5.30;;
39492;SDS011;25176;51.060;3.720;2023-03-12T14:08:32;26.63;;;5.78;;
39492;SDS011;25176;51.060;3.720;2023-03-12T14:11:16;30.38;;;6.45;;
39492;SDS011;25176;51.060;3.720;2023-03-12T14:19:05;23.42;;;4.55;;
39492;SDS011;25176;51.060;3.720;2023-03-12T14:21:36;19.80;;;3.72;;
39492;SDS011;25176;51.060;3.720;2023-03-12T14:24:04;19.08;;;4.25;;
39492;SDS011;25176;51.060;3.720;2023-03-12T14:26:32;25.02;;;5.47;;
39492;SDS011;25176;51.060;3.720;2023-03-12T14:31:39;25.20;;;4.53;;
39492;SDS011;25176;51.060;3.720;2023-03-12T14:36:37;25.80;;;5.30;;
39492;SDS011;25176;51.060;3.720;2023-03-12T14:41:58;23.95;;;5.25;;
39492;SDS011;25176;51.060;3.720;2023-03-12T14:44:26;27.67;;;6.18;;
39492;SDS011;25176;51.060;3.720;2023-03-12T14:47:02;22.83;;;4.65;;
39492;SDS011;25176;51.060;3.720;2023-03-12T14:49:31;24.83;;;4.95;;
39492;SDS011;25176;51.060;3.720;2023-03-12T14:52:04;19.77;;;4.22;;
39492;SDS011;25176;51.060;3.720;2023-03-12T14:54:29;23.17;;;4.63;;
39492;SDS011;25176;51.060;3.720;2023-03-12T14:56:55;20.25;;;5.25;;
39492;SDS011;25176;51.060;3.720;2023-03-12T14:59:25;27.45;;;5.60;;
39492;SDS011;25176;51.060;3.720;2023-03-12T15:02:17;27.70;;;6.03;;
39492;SDS011;25176;51.060;3.720;2023-03-12T15:04:42;27.70;;;5.88;;
39492;SDS011;25176;51.060;3.720;2023-03-12T15:07:09;24.55;;;5.10;;
39492;SDS011;25176;51.060;3.720;2023-03-12T15:09:39;22.13;;;5.90;;
39492;SDS011;25176;51.060;3.720;2023-03-12T15:12:14;21.08;;;5.25;;
39492;SDS011;25176;51.060;3.720;2023-03-12T15:14:46;25.60;;;5.40;;
39492;SDS011;25176;51.060;3.720;2023-03-12T15:17:15;22.75;;;5.70;;
39492;SDS011;25176;51.060;3.720;2023-03-12T15:19:42;20.80;;;5.97;;
39492;SDS011;25176;51.060;3.720;2023-03-12T15:22:10;23.75;;;4.80;;
39492;SDS011;25176;51.060;3.720;2023-03-12T15:24:40;20.67;;;4.85;;
39492;SDS011;25176;51.060;3.720;2023-03-12T15:29:52;27.23;;;5.68;;
39492;SDS011;25176;51.060;3.720;2023-03-12T15:32:19;29.40;;;5.75;;
39492;SDS011;25176;51.060;3.720;2023-03-12T15:34:46;28.17;;;5.28;;
39492;SDS011;25176;51.060;3.720;2023-03-12T15:37:19;32.95;;;5.90;;
39492;SDS011;25176;51.060;3.720;2023-03-12T15:39:47;23.38;;;5.25;;
39492;SDS011;25176;51.060;3.720;2023-03-12T15:42:16;22.73;;;5.75;;
39492;SDS011;25176;51.060;3.720;2023-03-12T15:44:46;27.55;;;4.90;;
39492;SDS011;25176;51.060;3.720;2023-03-12T15:47:14;29.25;;;7.03;;
39492;SDS011;25176;51.060;3.720;2023-03-12T15:49:49;25.17;;;6.38;;
39492;SDS011;25176;51.060;3.720;2023-03-12T15:55:04;25.75;;;5.30;;
39492;SDS011;25176;51.060;3.720;2023-03-12T15:57:44;25.65;;;5.80;;
39492;SDS011;25176;51.060;3.720;2023-03-12T16:00:17;27.90;;;5.82;;
39492;SDS011;25176;51.060;3.720;2023-03-12T16:05:14;23.92;;;5.32;;
39492;SDS011;25176;51.060;3.720;2023-03-12T16:07:40;29.75;;;6.90;;
39492;SDS011;25176;51.060;3.720;2023-03-12T16:10:08;31.05;;;5.68;;
39492;SDS011;25176;51.060;3.720;2023-03-12T16:12:37;25.15;;;6.15;;
39492;SDS011;25176;51.060;3.720;2023-03-12T16:15:03;20.23;;;4.57;;
39492;SDS011;25176;51.060;3.720;2023-03-12T16:17:30;26.35;;;5.95;;
39492;SDS011;25176;51.060;3.720;2023-03-12T16:19:55;24.08;;;5.45;;
39492;SDS011;25176;51.060;3.720;2023-03-12T16:22:21;28.30;;;5.15;;
39492;SDS011;25176;51.060;3.720;2023-03-12T16:24:46;24.92;;;4.88;;
39492;SDS011;25176;51.060;3.720;2023-03-12T16:27:13;23.65;;;5.38;;
39492;SDS011;25176;51.060;3.720;2023-03-12T16:29:40;31.75;;;6.18;;
39492;SDS011;25176;51.060;3.720;2023-03-12T16:32:13;21.60;;;5.72;;
39492;SDS011;25176;51.060;3.720;2023-03-12T16:34:40;20.70;;;4.88;;
39492;SDS011;25176;51.060;3.720;2023-03-12T16:37:10;19.20;;;4.88;;
39492;SDS011;25176;51.060;3.720;2023-03-12T16:39:36;26.20;;;5.55;;
39492;SDS011;25176;51.060;3.720;2023-03-12T16:42:02;28.05;;;5.00;;
39492;SDS011;25176;51.060;3.720;2023-03-12T16:44:36;27.15;;;5.90;;
39492;SDS011;25176;51.060;3.720;2023-03-12T16:47:04;28.27;;;6.05;;
39492;SDS011;25176;51.060;3.720;2023-03-12T16:49:33;21.33;;;4.82;;
39492;SDS011;25176;51.060;3.720;2023-03-12T16:51:59;23.48;;;4.68;;
39492;SDS011;25176;51.060;3.720;2023-03-12T16:54:25;24.70;;;4.82;;
39492;SDS011;25176;51.060;3.720;2023-03-12T16:56:50;25.75;;;5.00;;
39492;SDS011;25176;51.060;3.720;2023-03-12T16:59:26;20.85;;;4.13;;
39492;SDS011;25176;51.060;3.720;2023-03-12T17:01:55;20.20;;;4.72;;
39492;SDS011;25176;51.060;3.720;2023-03-12T17:04:21;23.58;;;5.10;;